<?xml version="1.0" encoding="UTF-8" standalone="no" ?>
<gpx xmlns="http://www.topografix.com/GPX/1/1" xmlns:xsi="http://www.w3.org/2001/XMLSchema-instance" xsi:schemaLocation="http://www.topografix.com/GPX/1/1 http://www.topografix.com/GPX/1/1/gpx.xsd" version="1.1" creator="VisuGPX - https://www.visugpx.com">
  <metadata>
    <name>Pic de l'Arcoèche</name>
    <desc><![CDATA[34rue de l marge 4]]></desc>
  </metadata>
  <wpt lat="42.90555" lon="-0.21331">
    <ele>1160.46</ele>
    <name><![CDATA[0000026]]></name>
    <type><![CDATA[Point de départ]]></type>
  </wpt>
  <wpt lat="42.89374" lon="-0.24286">
    <ele>2074.53</ele>
    <name><![CDATA[0000027]]></name>
    <desc><![CDATA[<p><br /><h3>Nom: Segment: 1</h3><br />Heure de départ: 03/15/2018 08:39<br/>Heure d'arrivée: 03/15/2018 11:28<br/>Distance: 3,6km (02:49)<br/>Temps déplacement: 01:22<br/>Vitesse moyenne: 1,28 km/h<br/>Vitesse moyenne mouv.: 2,64 km/h<br/>Vitesse Max.: 5,19 km/h<br/>Altitude minimale: 1160 m<br/>Altitude maximale: 2074 m<br/>Vitesse de montée: 333,4 m/h<br/>Vitesse de descente: -63,4 m/h<br/>Gain d'altitude: 917 m<br/>Perte d'altitude: -3 m<br/>Temps de montée: 02:45<br/>Temps de descente: 00:03<br/></p>]]></desc>
    <type><![CDATA[Point d'arrivée]]></type>
  </wpt>
  <wpt lat="42.90556" lon="-0.21338">
    <ele>1180.49</ele>
    <name><![CDATA[0000028]]></name>
    <desc><![CDATA[<p><br /><h3>Nom: Segment: 1</h3><br />Heure de départ: 03/15/2018 08:39<br/>Heure d'arrivée: 03/15/2018 15:13<br/>Distance: 7,7km (06:34)<br/>Temps déplacement: 03:35<br/>Vitesse moyenne: 1,17 km/h<br/>Vitesse moyenne mouv.: 2,09 km/h<br/>Vitesse Max.: 27,22 km/h<br/>Altitude minimale: 1160 m<br/>Altitude maximale: 2371 m<br/>Vitesse de montée: 326,4 m/h<br/>Vitesse de descente: -581,9 m/h<br/>Gain d'altitude: 925 m<br/>Perte d'altitude: -1190 m<br/>Temps de montée: 02:50<br/>Temps de descente: 02:02<br/></p>]]></desc>
    <type><![CDATA[Point d'arrivée]]></type>
  </wpt>
  <trk>
    <name><![CDATA[w1:39]]></name>
    <desc><![CDATA[<p>Heure de départ: 03/15/2018 08:39<br/>Heure d'arrivée: 03/15/2018 15:13<br/>Distance: 7,7 km (06:34)<br/>Temps déplacement: 03:35<br/>Vitesse moyenne: 1,17 km/h<br/>Vitesse moyenne mouv.: 2,15 km/h<br/>Vitesse Max.: 27,22 km/h<br/>Altitude minimale: 1160 m<br/>Altitude maximale: 2371 m<br/>Vitesse de montée: 249,1 m/h<br/>Vitesse de descente: -675,4 m/h<br/>Gain d'altitude: 1201 m<br/>Perte d'altitude: -1184 m<br/>Temps de montée: 04:49<br/>Temps de descente: 01:45<br/></p><hr align="center" width="480" style="height: 2px; width: 517px"/>]]></desc>
    <trkseg>
      <trkpt lat="42.90555" lon="-0.21331">
        <ele>1160.46</ele>
        <time>2018-03-15T07:39:17Z</time>
      </trkpt>
      <trkpt lat="42.90545" lon="-0.21351">
        <ele>1169.54</ele>
        <time>2018-03-15T07:41:51Z</time>
      </trkpt>
      <trkpt lat="42.90539" lon="-0.21375">
        <ele>1169.52</ele>
        <time>2018-03-15T07:42:06Z</time>
      </trkpt>
      <trkpt lat="42.90536" lon="-0.214">
        <ele>1168.58</ele>
        <time>2018-03-15T07:42:22Z</time>
      </trkpt>
      <trkpt lat="42.90533" lon="-0.21425">
        <ele>1165.82</ele>
        <time>2018-03-15T07:42:39Z</time>
      </trkpt>
      <trkpt lat="42.90528" lon="-0.2145">
        <ele>1166.52</ele>
        <time>2018-03-15T07:42:54Z</time>
      </trkpt>
      <trkpt lat="42.9053" lon="-0.21475">
        <ele>1167.76</ele>
        <time>2018-03-15T07:43:08Z</time>
      </trkpt>
      <trkpt lat="42.90522" lon="-0.21498">
        <ele>1167.51</ele>
        <time>2018-03-15T07:43:26Z</time>
      </trkpt>
      <trkpt lat="42.9051" lon="-0.21517">
        <ele>1169.49</ele>
        <time>2018-03-15T07:43:42Z</time>
      </trkpt>
      <trkpt lat="42.905" lon="-0.2154">
        <ele>1168.52</ele>
        <time>2018-03-15T07:43:59Z</time>
      </trkpt>
      <trkpt lat="42.90486" lon="-0.21555">
        <ele>1170.82</ele>
        <time>2018-03-15T07:44:27Z</time>
      </trkpt>
      <trkpt lat="42.90469" lon="-0.21567">
        <ele>1174.52</ele>
        <time>2018-03-15T07:45:12Z</time>
      </trkpt>
      <trkpt lat="42.90455" lon="-0.21583">
        <ele>1173.49</ele>
        <time>2018-03-15T07:46:02Z</time>
      </trkpt>
      <trkpt lat="42.90444" lon="-0.21604">
        <ele>1169.54</ele>
        <time>2018-03-15T07:46:30Z</time>
      </trkpt>
      <trkpt lat="42.90448" lon="-0.21628">
        <ele>1171.52</ele>
        <time>2018-03-15T07:47:05Z</time>
      </trkpt>
      <trkpt lat="42.90442" lon="-0.21652">
        <ele>1173.04</ele>
        <time>2018-03-15T07:47:46Z</time>
      </trkpt>
      <trkpt lat="42.90426" lon="-0.21665">
        <ele>1167.82</ele>
        <time>2018-03-15T07:48:32Z</time>
      </trkpt>
      <trkpt lat="42.90408" lon="-0.21667">
        <ele>1170.49</ele>
        <time>2018-03-15T07:48:52Z</time>
      </trkpt>
      <trkpt lat="42.90391" lon="-0.21676">
        <ele>1171.52</ele>
        <time>2018-03-15T07:49:09Z</time>
      </trkpt>
      <trkpt lat="42.90374" lon="-0.21687">
        <ele>1172.51</ele>
        <time>2018-03-15T07:49:26Z</time>
      </trkpt>
      <trkpt lat="42.90357" lon="-0.21699">
        <ele>1171.51</ele>
        <time>2018-03-15T07:49:43Z</time>
      </trkpt>
      <trkpt lat="42.90344" lon="-0.21716">
        <ele>1171.34</ele>
        <time>2018-03-15T07:49:59Z</time>
      </trkpt>
      <trkpt lat="42.90331" lon="-0.21733">
        <ele>1172.31</ele>
        <time>2018-03-15T07:50:15Z</time>
      </trkpt>
      <trkpt lat="42.90319" lon="-0.21753">
        <ele>1171.55</ele>
        <time>2018-03-15T07:50:31Z</time>
      </trkpt>
      <trkpt lat="42.9031" lon="-0.21775">
        <ele>1173.54</ele>
        <time>2018-03-15T07:50:48Z</time>
      </trkpt>
      <trkpt lat="42.90303" lon="-0.21798">
        <ele>1172.25</ele>
        <time>2018-03-15T07:51:04Z</time>
      </trkpt>
      <trkpt lat="42.90293" lon="-0.2182">
        <ele>1172.52</ele>
        <time>2018-03-15T07:51:21Z</time>
      </trkpt>
      <trkpt lat="42.90285" lon="-0.21843">
        <ele>1172.22</ele>
        <time>2018-03-15T07:51:35Z</time>
      </trkpt>
      <trkpt lat="42.90277" lon="-0.21865">
        <ele>1174.43</ele>
        <time>2018-03-15T07:51:49Z</time>
      </trkpt>
      <trkpt lat="42.90272" lon="-0.21888">
        <ele>1174.21</ele>
        <time>2018-03-15T07:52:03Z</time>
      </trkpt>
      <trkpt lat="42.90261" lon="-0.2191">
        <ele>1172.55</ele>
        <time>2018-03-15T07:52:19Z</time>
      </trkpt>
      <trkpt lat="42.90248" lon="-0.21927">
        <ele>1170.61</ele>
        <time>2018-03-15T07:52:34Z</time>
      </trkpt>
      <trkpt lat="42.90232" lon="-0.21939">
        <ele>1171.82</ele>
        <time>2018-03-15T07:52:49Z</time>
      </trkpt>
      <trkpt lat="42.90216" lon="-0.21953">
        <ele>1172.59</ele>
        <time>2018-03-15T07:53:05Z</time>
      </trkpt>
      <trkpt lat="42.90203" lon="-0.2197">
        <ele>1172.52</ele>
        <time>2018-03-15T07:53:22Z</time>
      </trkpt>
      <trkpt lat="42.90191" lon="-0.21989">
        <ele>1171.61</ele>
        <time>2018-03-15T07:53:40Z</time>
      </trkpt>
      <trkpt lat="42.90176" lon="-0.22002">
        <ele>1170.53</ele>
        <time>2018-03-15T07:53:57Z</time>
      </trkpt>
      <trkpt lat="42.90162" lon="-0.2202">
        <ele>1173.49</ele>
        <time>2018-03-15T07:54:15Z</time>
      </trkpt>
      <trkpt lat="42.90148" lon="-0.22038">
        <ele>1175.52</ele>
        <time>2018-03-15T07:54:33Z</time>
      </trkpt>
      <trkpt lat="42.90136" lon="-0.22057">
        <ele>1175.31</ele>
        <time>2018-03-15T07:54:54Z</time>
      </trkpt>
      <trkpt lat="42.90121" lon="-0.22072">
        <ele>1180.43</ele>
        <time>2018-03-15T07:55:11Z</time>
      </trkpt>
      <trkpt lat="42.90109" lon="-0.22092">
        <ele>1180.52</ele>
        <time>2018-03-15T07:55:28Z</time>
      </trkpt>
      <trkpt lat="42.90099" lon="-0.22113">
        <ele>1182.49</ele>
        <time>2018-03-15T07:55:47Z</time>
      </trkpt>
      <trkpt lat="42.90088" lon="-0.22133">
        <ele>1183.52</ele>
        <time>2018-03-15T07:56:08Z</time>
      </trkpt>
      <trkpt lat="42.90081" lon="-0.22156">
        <ele>1183.52</ele>
        <time>2018-03-15T07:56:27Z</time>
      </trkpt>
      <trkpt lat="42.9008" lon="-0.22181">
        <ele>1183.53</ele>
        <time>2018-03-15T07:56:51Z</time>
      </trkpt>
      <trkpt lat="42.90088" lon="-0.22204">
        <ele>1186.31</ele>
        <time>2018-03-15T07:57:16Z</time>
      </trkpt>
      <trkpt lat="42.90101" lon="-0.22222">
        <ele>1188.76</ele>
        <time>2018-03-15T07:57:40Z</time>
      </trkpt>
      <trkpt lat="42.90084" lon="-0.22232">
        <ele>1197.5</ele>
        <time>2018-03-15T07:58:11Z</time>
      </trkpt>
      <trkpt lat="42.90072" lon="-0.2225">
        <ele>1198.52</ele>
        <time>2018-03-15T07:58:43Z</time>
      </trkpt>
      <trkpt lat="42.90061" lon="-0.22271">
        <ele>1201.92</ele>
        <time>2018-03-15T07:59:11Z</time>
      </trkpt>
      <trkpt lat="42.90076" lon="-0.22286">
        <ele>1210.12</ele>
        <time>2018-03-15T07:59:50Z</time>
      </trkpt>
      <trkpt lat="42.90094" lon="-0.22294">
        <ele>1214.52</ele>
        <time>2018-03-15T08:00:23Z</time>
      </trkpt>
      <trkpt lat="42.90094" lon="-0.2232">
        <ele>1225.23</ele>
        <time>2018-03-15T08:01:30Z</time>
      </trkpt>
      <trkpt lat="42.90111" lon="-0.2233">
        <ele>1232.58</ele>
        <time>2018-03-15T08:02:00Z</time>
      </trkpt>
      <trkpt lat="42.90098" lon="-0.22348">
        <ele>1240.22</ele>
        <time>2018-03-15T08:02:38Z</time>
      </trkpt>
      <trkpt lat="42.90114" lon="-0.22361">
        <ele>1243.52</ele>
        <time>2018-03-15T08:03:21Z</time>
      </trkpt>
      <trkpt lat="42.90114" lon="-0.22386">
        <ele>1252.52</ele>
        <time>2018-03-15T08:04:12Z</time>
      </trkpt>
      <trkpt lat="42.90115" lon="-0.2241">
        <ele>1262.52</ele>
        <time>2018-03-15T08:05:18Z</time>
      </trkpt>
      <trkpt lat="42.90117" lon="-0.22435">
        <ele>1274.09</ele>
        <time>2018-03-15T08:06:19Z</time>
      </trkpt>
      <trkpt lat="42.90102" lon="-0.22449">
        <ele>1281.31</ele>
        <time>2018-03-15T08:07:15Z</time>
      </trkpt>
      <trkpt lat="42.9009" lon="-0.22467">
        <ele>1293.22</ele>
        <time>2018-03-15T08:08:25Z</time>
      </trkpt>
      <trkpt lat="42.90101" lon="-0.22487">
        <ele>1308.54</ele>
        <time>2018-03-15T08:12:51Z</time>
      </trkpt>
      <trkpt lat="42.90092" lon="-0.22509">
        <ele>1311.42</ele>
        <time>2018-03-15T08:13:57Z</time>
      </trkpt>
      <trkpt lat="42.90102" lon="-0.2253">
        <ele>1332.52</ele>
        <time>2018-03-15T08:15:14Z</time>
      </trkpt>
      <trkpt lat="42.90101" lon="-0.22555">
        <ele>1338.79</ele>
        <time>2018-03-15T08:16:32Z</time>
      </trkpt>
      <trkpt lat="42.90095" lon="-0.22578">
        <ele>1345.61</ele>
        <time>2018-03-15T08:17:41Z</time>
      </trkpt>
      <trkpt lat="42.90085" lon="-0.22599">
        <ele>1357.13</ele>
        <time>2018-03-15T08:18:21Z</time>
      </trkpt>
      <trkpt lat="42.90093" lon="-0.22622">
        <ele>1367.52</ele>
        <time>2018-03-15T08:19:21Z</time>
      </trkpt>
      <trkpt lat="42.90106" lon="-0.22639">
        <ele>1380.78</ele>
        <time>2018-03-15T08:20:46Z</time>
      </trkpt>
      <trkpt lat="42.90092" lon="-0.22657">
        <ele>1380.5</ele>
        <time>2018-03-15T08:21:48Z</time>
      </trkpt>
      <trkpt lat="42.90087" lon="-0.22681">
        <ele>1386.97</ele>
        <time>2018-03-15T08:22:48Z</time>
      </trkpt>
      <trkpt lat="42.90096" lon="-0.22704">
        <ele>1396.73</ele>
        <time>2018-03-15T08:23:44Z</time>
      </trkpt>
      <trkpt lat="42.90113" lon="-0.22712">
        <ele>1405.2</ele>
        <time>2018-03-15T08:24:46Z</time>
      </trkpt>
      <trkpt lat="42.90116" lon="-0.22736">
        <ele>1416.52</ele>
        <time>2018-03-15T08:26:00Z</time>
      </trkpt>
      <trkpt lat="42.90133" lon="-0.22744">
        <ele>1422.24</ele>
        <time>2018-03-15T08:26:54Z</time>
      </trkpt>
      <trkpt lat="42.90134" lon="-0.22769">
        <ele>1433.43</ele>
        <time>2018-03-15T08:27:50Z</time>
      </trkpt>
      <trkpt lat="42.9014" lon="-0.22793">
        <ele>1438.94</ele>
        <time>2018-03-15T08:28:49Z</time>
      </trkpt>
      <trkpt lat="42.90151" lon="-0.22813">
        <ele>1443.61</ele>
        <time>2018-03-15T08:29:51Z</time>
      </trkpt>
      <trkpt lat="42.90161" lon="-0.22835">
        <ele>1456.13</ele>
        <time>2018-03-15T08:31:01Z</time>
      </trkpt>
      <trkpt lat="42.90157" lon="-0.2286">
        <ele>1458.81</ele>
        <time>2018-03-15T08:32:15Z</time>
      </trkpt>
      <trkpt lat="42.90168" lon="-0.22882">
        <ele>1478.21</ele>
        <time>2018-03-15T08:33:21Z</time>
      </trkpt>
      <trkpt lat="42.90158" lon="-0.22903">
        <ele>1481.42</ele>
        <time>2018-03-15T08:34:13Z</time>
      </trkpt>
      <trkpt lat="42.90152" lon="-0.22926">
        <ele>1483.52</ele>
        <time>2018-03-15T08:35:19Z</time>
      </trkpt>
      <trkpt lat="42.9015" lon="-0.22951">
        <ele>1495.22</ele>
        <time>2018-03-15T08:38:37Z</time>
      </trkpt>
      <trkpt lat="42.90145" lon="-0.22977">
        <ele>1499.92</ele>
        <time>2018-03-15T08:42:52Z</time>
      </trkpt>
      <trkpt lat="42.90143" lon="-0.23001">
        <ele>1504.13</ele>
        <time>2018-03-15T08:48:14Z</time>
      </trkpt>
      <trkpt lat="42.90135" lon="-0.23024">
        <ele>1516.22</ele>
        <time>2018-03-15T08:50:05Z</time>
      </trkpt>
      <trkpt lat="42.90137" lon="-0.23048">
        <ele>1522.52</ele>
        <time>2018-03-15T08:51:02Z</time>
      </trkpt>
      <trkpt lat="42.90138" lon="-0.23074">
        <ele>1538.23</ele>
        <time>2018-03-15T08:52:36Z</time>
      </trkpt>
      <trkpt lat="42.90145" lon="-0.23098">
        <ele>1542.52</ele>
        <time>2018-03-15T08:53:40Z</time>
      </trkpt>
      <trkpt lat="42.9015" lon="-0.23122">
        <ele>1555.52</ele>
        <time>2018-03-15T08:54:54Z</time>
      </trkpt>
      <trkpt lat="42.90154" lon="-0.23146">
        <ele>1569.04</ele>
        <time>2018-03-15T08:56:56Z</time>
      </trkpt>
      <trkpt lat="42.90153" lon="-0.23171">
        <ele>1577.21</ele>
        <time>2018-03-15T08:59:25Z</time>
      </trkpt>
      <trkpt lat="42.90138" lon="-0.23185">
        <ele>1581.22</ele>
        <time>2018-03-15T09:00:04Z</time>
      </trkpt>
      <trkpt lat="42.90139" lon="-0.23213">
        <ele>1591.22</ele>
        <time>2018-03-15T09:05:55Z</time>
      </trkpt>
      <trkpt lat="42.90135" lon="-0.23237">
        <ele>1601.52</ele>
        <time>2018-03-15T09:06:54Z</time>
      </trkpt>
      <trkpt lat="42.90143" lon="-0.2326">
        <ele>1603.81</ele>
        <time>2018-03-15T09:07:52Z</time>
      </trkpt>
      <trkpt lat="42.90151" lon="-0.23283">
        <ele>1604.24</ele>
        <time>2018-03-15T09:08:59Z</time>
      </trkpt>
      <trkpt lat="42.90168" lon="-0.23291">
        <ele>1601.58</ele>
        <time>2018-03-15T09:09:33Z</time>
      </trkpt>
      <trkpt lat="42.90153" lon="-0.23304">
        <ele>1620.52</ele>
        <time>2018-03-15T09:10:26Z</time>
      </trkpt>
      <trkpt lat="42.9014" lon="-0.23324">
        <ele>1634.52</ele>
        <time>2018-03-15T09:11:08Z</time>
      </trkpt>
      <trkpt lat="42.90126" lon="-0.23341">
        <ele>1639.44</ele>
        <time>2018-03-15T09:11:42Z</time>
      </trkpt>
      <trkpt lat="42.9011" lon="-0.23353">
        <ele>1646.19</ele>
        <time>2018-03-15T09:12:14Z</time>
      </trkpt>
      <trkpt lat="42.90095" lon="-0.23366">
        <ele>1650.92</ele>
        <time>2018-03-15T09:19:36Z</time>
      </trkpt>
      <trkpt lat="42.90081" lon="-0.23382">
        <ele>1657.48</ele>
        <time>2018-03-15T09:20:18Z</time>
      </trkpt>
      <trkpt lat="42.90079" lon="-0.23407">
        <ele>1667.46</ele>
        <time>2018-03-15T09:21:21Z</time>
      </trkpt>
      <trkpt lat="42.90079" lon="-0.23433">
        <ele>1684.52</ele>
        <time>2018-03-15T09:22:41Z</time>
      </trkpt>
      <trkpt lat="42.90072" lon="-0.23456">
        <ele>1686.52</ele>
        <time>2018-03-15T09:23:52Z</time>
      </trkpt>
      <trkpt lat="42.90057" lon="-0.23469">
        <ele>1693.55</ele>
        <time>2018-03-15T09:24:31Z</time>
      </trkpt>
      <trkpt lat="42.90048" lon="-0.23491">
        <ele>1702.61</ele>
        <time>2018-03-15T09:25:03Z</time>
      </trkpt>
      <trkpt lat="42.90055" lon="-0.23515">
        <ele>1703.29</ele>
        <time>2018-03-15T09:26:14Z</time>
      </trkpt>
      <trkpt lat="42.90043" lon="-0.23534">
        <ele>1718.43</ele>
        <time>2018-03-15T09:26:59Z</time>
      </trkpt>
      <trkpt lat="42.90027" lon="-0.23545">
        <ele>1726.21</ele>
        <time>2018-03-15T09:28:15Z</time>
      </trkpt>
      <trkpt lat="42.90011" lon="-0.23557">
        <ele>1729.21</ele>
        <time>2018-03-15T09:28:48Z</time>
      </trkpt>
      <trkpt lat="42.89995" lon="-0.2357">
        <ele>1730.52</ele>
        <time>2018-03-15T09:29:19Z</time>
      </trkpt>
      <trkpt lat="42.89979" lon="-0.23582">
        <ele>1734.51</ele>
        <time>2018-03-15T09:29:50Z</time>
      </trkpt>
      <trkpt lat="42.89964" lon="-0.23597">
        <ele>1736.51</ele>
        <time>2018-03-15T09:30:25Z</time>
      </trkpt>
      <trkpt lat="42.89963" lon="-0.23623">
        <ele>1742.43</ele>
        <time>2018-03-15T09:31:37Z</time>
      </trkpt>
      <trkpt lat="42.89947" lon="-0.23633">
        <ele>1749.22</ele>
        <time>2018-03-15T09:32:16Z</time>
      </trkpt>
      <trkpt lat="42.89928" lon="-0.23638">
        <ele>1754.52</ele>
        <time>2018-03-15T09:32:45Z</time>
      </trkpt>
      <trkpt lat="42.8991" lon="-0.23644">
        <ele>1756.61</ele>
        <time>2018-03-15T09:33:18Z</time>
      </trkpt>
      <trkpt lat="42.89923" lon="-0.23663">
        <ele>1762.54</ele>
        <time>2018-03-15T09:34:02Z</time>
      </trkpt>
      <trkpt lat="42.8991" lon="-0.23681">
        <ele>1772.43</ele>
        <time>2018-03-15T09:35:11Z</time>
      </trkpt>
      <trkpt lat="42.89892" lon="-0.23685">
        <ele>1777.52</ele>
        <time>2018-03-15T09:35:44Z</time>
      </trkpt>
      <trkpt lat="42.89875" lon="-0.23696">
        <ele>1778.51</ele>
        <time>2018-03-15T09:36:16Z</time>
      </trkpt>
      <trkpt lat="42.89891" lon="-0.23708">
        <ele>1783.5</ele>
        <time>2018-03-15T09:36:50Z</time>
      </trkpt>
      <trkpt lat="42.89907" lon="-0.2372">
        <ele>1794.4</ele>
        <time>2018-03-15T09:37:32Z</time>
      </trkpt>
      <trkpt lat="42.89921" lon="-0.23739">
        <ele>1798.52</ele>
        <time>2018-03-15T09:38:05Z</time>
      </trkpt>
      <trkpt lat="42.89903" lon="-0.23743">
        <ele>1804.43</ele>
        <time>2018-03-15T09:38:45Z</time>
      </trkpt>
      <trkpt lat="42.89886" lon="-0.23751">
        <ele>1807.49</ele>
        <time>2018-03-15T09:39:16Z</time>
      </trkpt>
      <trkpt lat="42.89869" lon="-0.23761">
        <ele>1815.49</ele>
        <time>2018-03-15T09:40:08Z</time>
      </trkpt>
      <trkpt lat="42.89852" lon="-0.23772">
        <ele>1821.49</ele>
        <time>2018-03-15T09:41:04Z</time>
      </trkpt>
      <trkpt lat="42.89857" lon="-0.23796">
        <ele>1831.23</ele>
        <time>2018-03-15T09:45:07Z</time>
      </trkpt>
      <trkpt lat="42.89855" lon="-0.23821">
        <ele>1841.54</ele>
        <time>2018-03-15T09:46:30Z</time>
      </trkpt>
      <trkpt lat="42.89842" lon="-0.23838">
        <ele>1849.43</ele>
        <time>2018-03-15T09:47:54Z</time>
      </trkpt>
      <trkpt lat="42.89823" lon="-0.2384">
        <ele>1856.43</ele>
        <time>2018-03-15T09:48:26Z</time>
      </trkpt>
      <trkpt lat="42.89814" lon="-0.23861">
        <ele>1861.43</ele>
        <time>2018-03-15T09:49:46Z</time>
      </trkpt>
      <trkpt lat="42.89796" lon="-0.23859">
        <ele>1868.8</ele>
        <time>2018-03-15T09:50:25Z</time>
      </trkpt>
      <trkpt lat="42.89792" lon="-0.23884">
        <ele>1871.21</ele>
        <time>2018-03-15T10:01:23Z</time>
      </trkpt>
      <trkpt lat="42.89777" lon="-0.23898">
        <ele>1878.42</ele>
        <time>2018-03-15T10:02:23Z</time>
      </trkpt>
      <trkpt lat="42.89785" lon="-0.2392">
        <ele>1883.13</ele>
        <time>2018-03-15T10:03:16Z</time>
      </trkpt>
      <trkpt lat="42.89769" lon="-0.23935">
        <ele>1893.92</ele>
        <time>2018-03-15T10:03:59Z</time>
      </trkpt>
      <trkpt lat="42.89753" lon="-0.23947">
        <ele>1896.52</ele>
        <time>2018-03-15T10:04:27Z</time>
      </trkpt>
      <trkpt lat="42.89766" lon="-0.23963">
        <ele>1896.61</ele>
        <time>2018-03-15T10:05:03Z</time>
      </trkpt>
      <trkpt lat="42.89758" lon="-0.23986">
        <ele>1907.22</ele>
        <time>2018-03-15T10:05:55Z</time>
      </trkpt>
      <trkpt lat="42.89742" lon="-0.24001">
        <ele>1914.22</ele>
        <time>2018-03-15T10:06:26Z</time>
      </trkpt>
      <trkpt lat="42.89726" lon="-0.24012">
        <ele>1919.22</ele>
        <time>2018-03-15T10:06:57Z</time>
      </trkpt>
      <trkpt lat="42.89708" lon="-0.24019">
        <ele>1920.52</ele>
        <time>2018-03-15T10:07:29Z</time>
      </trkpt>
      <trkpt lat="42.89704" lon="-0.24043">
        <ele>1925.2</ele>
        <time>2018-03-15T10:08:33Z</time>
      </trkpt>
      <trkpt lat="42.89686" lon="-0.2405">
        <ele>1932.51</ele>
        <time>2018-03-15T10:09:07Z</time>
      </trkpt>
      <trkpt lat="42.89698" lon="-0.24069">
        <ele>1937.22</ele>
        <time>2018-03-15T10:09:55Z</time>
      </trkpt>
      <trkpt lat="42.89682" lon="-0.24079">
        <ele>1944.43</ele>
        <time>2018-03-15T10:10:39Z</time>
      </trkpt>
      <trkpt lat="42.89664" lon="-0.24072">
        <ele>1945.52</ele>
        <time>2018-03-15T10:11:10Z</time>
      </trkpt>
      <trkpt lat="42.8967" lon="-0.24097">
        <ele>1953.82</ele>
        <time>2018-03-15T10:12:00Z</time>
      </trkpt>
      <trkpt lat="42.89652" lon="-0.24098">
        <ele>1959.52</ele>
        <time>2018-03-15T10:12:53Z</time>
      </trkpt>
      <trkpt lat="42.89634" lon="-0.24092">
        <ele>1964.22</ele>
        <time>2018-03-15T10:13:24Z</time>
      </trkpt>
      <trkpt lat="42.89635" lon="-0.24116">
        <ele>1969.52</ele>
        <time>2018-03-15T10:14:03Z</time>
      </trkpt>
      <trkpt lat="42.89618" lon="-0.24123">
        <ele>1980.49</ele>
        <time>2018-03-15T10:15:22Z</time>
      </trkpt>
      <trkpt lat="42.896" lon="-0.2413">
        <ele>1987.42</ele>
        <time>2018-03-15T10:15:51Z</time>
      </trkpt>
      <trkpt lat="42.89582" lon="-0.24136">
        <ele>1991.5</ele>
        <time>2018-03-15T10:16:19Z</time>
      </trkpt>
      <trkpt lat="42.89566" lon="-0.24146">
        <ele>1995.22</ele>
        <time>2018-03-15T10:16:49Z</time>
      </trkpt>
      <trkpt lat="42.89554" lon="-0.24165">
        <ele>1996.49</ele>
        <time>2018-03-15T10:19:26Z</time>
      </trkpt>
      <trkpt lat="42.89541" lon="-0.24147">
        <ele>1995.5</ele>
        <time>2018-03-15T10:20:09Z</time>
      </trkpt>
      <trkpt lat="42.89523" lon="-0.24147">
        <ele>2004.43</ele>
        <time>2018-03-15T10:20:53Z</time>
      </trkpt>
      <trkpt lat="42.89505" lon="-0.24138">
        <ele>2007.23</ele>
        <time>2018-03-15T10:21:28Z</time>
      </trkpt>
      <trkpt lat="42.89489" lon="-0.24127">
        <ele>2008.52</ele>
        <time>2018-03-15T10:21:59Z</time>
      </trkpt>
      <trkpt lat="42.89477" lon="-0.24146">
        <ele>2016.22</ele>
        <time>2018-03-15T10:22:41Z</time>
      </trkpt>
      <trkpt lat="42.89471" lon="-0.2417">
        <ele>2025.51</ele>
        <time>2018-03-15T10:23:19Z</time>
      </trkpt>
      <trkpt lat="42.89452" lon="-0.24162">
        <ele>2026.52</ele>
        <time>2018-03-15T10:24:04Z</time>
      </trkpt>
      <trkpt lat="42.89438" lon="-0.24178">
        <ele>2033.49</ele>
        <time>2018-03-15T10:24:41Z</time>
      </trkpt>
      <trkpt lat="42.89437" lon="-0.24203">
        <ele>2042.22</ele>
        <time>2018-03-15T10:25:12Z</time>
      </trkpt>
      <trkpt lat="42.89422" lon="-0.24218">
        <ele>2047.22</ele>
        <time>2018-03-15T10:26:19Z</time>
      </trkpt>
      <trkpt lat="42.89404" lon="-0.24222">
        <ele>2054.19</ele>
        <time>2018-03-15T10:26:56Z</time>
      </trkpt>
      <trkpt lat="42.89394" lon="-0.24244">
        <ele>2062.13</ele>
        <time>2018-03-15T10:27:50Z</time>
      </trkpt>
      <trkpt lat="42.89386" lon="-0.24267">
        <ele>2070.52</ele>
        <time>2018-03-15T10:28:23Z</time>
      </trkpt>
      <trkpt lat="42.89374" lon="-0.24286">
        <ele>2074.53</ele>
        <time>2018-03-15T10:28:57Z</time>
      </trkpt>
      <trkpt lat="42.89031" lon="-0.24754">
        <ele>2354.52</ele>
        <time>2018-03-15T12:07:59Z</time>
      </trkpt>
      <trkpt lat="42.89049" lon="-0.24747">
        <ele>2365.52</ele>
        <time>2018-03-15T12:23:14Z</time>
      </trkpt>
      <trkpt lat="42.89067" lon="-0.24745">
        <ele>2371.5</ele>
        <time>2018-03-15T12:26:28Z</time>
      </trkpt>
      <trkpt lat="42.89054" lon="-0.24724">
        <ele>2366.68</ele>
        <time>2018-03-15T12:26:35Z</time>
      </trkpt>
      <trkpt lat="42.89042" lon="-0.24705">
        <ele>2361.83</ele>
        <time>2018-03-15T12:26:45Z</time>
      </trkpt>
      <trkpt lat="42.89053" lon="-0.24685">
        <ele>2347.7</ele>
        <time>2018-03-15T12:26:58Z</time>
      </trkpt>
      <trkpt lat="42.8907" lon="-0.24697">
        <ele>2342.89</ele>
        <time>2018-03-15T12:27:02Z</time>
      </trkpt>
      <trkpt lat="42.89086" lon="-0.24679">
        <ele>2332.87</ele>
        <time>2018-03-15T12:29:10Z</time>
      </trkpt>
      <trkpt lat="42.89094" lon="-0.24657">
        <ele>2320.75</ele>
        <time>2018-03-15T12:29:15Z</time>
      </trkpt>
      <trkpt lat="42.89102" lon="-0.24632">
        <ele>2308.38</ele>
        <time>2018-03-15T12:29:21Z</time>
      </trkpt>
      <trkpt lat="42.89106" lon="-0.24608">
        <ele>2297.5</ele>
        <time>2018-03-15T12:29:25Z</time>
      </trkpt>
      <trkpt lat="42.89104" lon="-0.2458">
        <ele>2293.2</ele>
        <time>2018-03-15T12:29:28Z</time>
      </trkpt>
      <trkpt lat="42.89118" lon="-0.24558">
        <ele>2275.15</ele>
        <time>2018-03-15T12:31:38Z</time>
      </trkpt>
      <trkpt lat="42.8913" lon="-0.24539">
        <ele>2269.27</ele>
        <time>2018-03-15T12:31:44Z</time>
      </trkpt>
      <trkpt lat="42.89147" lon="-0.24527">
        <ele>2261.75</ele>
        <time>2018-03-15T12:31:50Z</time>
      </trkpt>
      <trkpt lat="42.89162" lon="-0.2454">
        <ele>2246.82</ele>
        <time>2018-03-15T12:32:04Z</time>
      </trkpt>
      <trkpt lat="42.89172" lon="-0.24562">
        <ele>2241.83</ele>
        <time>2018-03-15T12:32:12Z</time>
      </trkpt>
      <trkpt lat="42.8919" lon="-0.24558">
        <ele>2233.96</ele>
        <time>2018-03-15T12:32:21Z</time>
      </trkpt>
      <trkpt lat="42.892" lon="-0.24535">
        <ele>2224.99</ele>
        <time>2018-03-15T12:32:27Z</time>
      </trkpt>
      <trkpt lat="42.89212" lon="-0.24511">
        <ele>2213.5</ele>
        <time>2018-03-15T12:32:32Z</time>
      </trkpt>
      <trkpt lat="42.8923" lon="-0.24495">
        <ele>2203.38</ele>
        <time>2018-03-15T12:32:37Z</time>
      </trkpt>
      <trkpt lat="42.89234" lon="-0.24468">
        <ele>2194.47</ele>
        <time>2018-03-15T12:32:41Z</time>
      </trkpt>
      <trkpt lat="42.89241" lon="-0.24439">
        <ele>2183.41</ele>
        <time>2018-03-15T12:32:46Z</time>
      </trkpt>
      <trkpt lat="42.89256" lon="-0.24418">
        <ele>2171.8</ele>
        <time>2018-03-15T12:32:50Z</time>
      </trkpt>
      <trkpt lat="42.89274" lon="-0.2441">
        <ele>2157.65</ele>
        <time>2018-03-15T12:32:54Z</time>
      </trkpt>
      <trkpt lat="42.89285" lon="-0.24389">
        <ele>2125.89</ele>
        <time>2018-03-15T12:35:24Z</time>
      </trkpt>
      <trkpt lat="42.89303" lon="-0.24378">
        <ele>2122.94</ele>
        <time>2018-03-15T12:35:28Z</time>
      </trkpt>
      <trkpt lat="42.8932" lon="-0.2436">
        <ele>2119.67</ele>
        <time>2018-03-15T12:35:33Z</time>
      </trkpt>
      <trkpt lat="42.89331" lon="-0.24336">
        <ele>2113.95</ele>
        <time>2018-03-15T12:35:38Z</time>
      </trkpt>
      <trkpt lat="42.89349" lon="-0.24327">
        <ele>2108.34</ele>
        <time>2018-03-15T12:35:42Z</time>
      </trkpt>
      <trkpt lat="42.89369" lon="-0.24338">
        <ele>2096.68</ele>
        <time>2018-03-15T12:35:48Z</time>
      </trkpt>
      <trkpt lat="42.89386" lon="-0.24322">
        <ele>2090.39</ele>
        <time>2018-03-15T12:35:51Z</time>
      </trkpt>
      <trkpt lat="42.89398" lon="-0.24301">
        <ele>2083.62</ele>
        <time>2018-03-15T12:35:54Z</time>
      </trkpt>
      <trkpt lat="42.89413" lon="-0.24282">
        <ele>2078.09</ele>
        <time>2018-03-15T12:35:57Z</time>
      </trkpt>
      <trkpt lat="42.89426" lon="-0.24259">
        <ele>2073.28</ele>
        <time>2018-03-15T12:36:00Z</time>
      </trkpt>
      <trkpt lat="42.89431" lon="-0.24236">
        <ele>2059.82</ele>
        <time>2018-03-15T12:38:06Z</time>
      </trkpt>
      <trkpt lat="42.89453" lon="-0.24244">
        <ele>2053.28</ele>
        <time>2018-03-15T12:38:11Z</time>
      </trkpt>
      <trkpt lat="42.89474" lon="-0.24232">
        <ele>2049.93</ele>
        <time>2018-03-15T12:38:15Z</time>
      </trkpt>
      <trkpt lat="42.89486" lon="-0.24211">
        <ele>2043.37</ele>
        <time>2018-03-15T12:38:19Z</time>
      </trkpt>
      <trkpt lat="42.89503" lon="-0.24196">
        <ele>2036.04</ele>
        <time>2018-03-15T12:38:24Z</time>
      </trkpt>
      <trkpt lat="42.89518" lon="-0.24176">
        <ele>2026.49</ele>
        <time>2018-03-15T12:38:28Z</time>
      </trkpt>
      <trkpt lat="42.89538" lon="-0.24179">
        <ele>2008.97</ele>
        <time>2018-03-15T12:38:39Z</time>
      </trkpt>
      <trkpt lat="42.89558" lon="-0.24173">
        <ele>2004.28</ele>
        <time>2018-03-15T12:38:42Z</time>
      </trkpt>
      <trkpt lat="42.89574" lon="-0.2415">
        <ele>2000.96</ele>
        <time>2018-03-15T12:38:45Z</time>
      </trkpt>
      <trkpt lat="42.89589" lon="-0.24133">
        <ele>1997.95</ele>
        <time>2018-03-15T12:38:48Z</time>
      </trkpt>
      <trkpt lat="42.89609" lon="-0.24129">
        <ele>1987.24</ele>
        <time>2018-03-15T12:38:58Z</time>
      </trkpt>
      <trkpt lat="42.89616" lon="-0.24104">
        <ele>1980.52</ele>
        <time>2018-03-15T12:42:11Z</time>
      </trkpt>
      <trkpt lat="42.8962" lon="-0.24078">
        <ele>1981.45</ele>
        <time>2018-03-15T12:42:16Z</time>
      </trkpt>
      <trkpt lat="42.89609" lon="-0.24051">
        <ele>1976.55</ele>
        <time>2018-03-15T12:42:36Z</time>
      </trkpt>
      <trkpt lat="42.89602" lon="-0.24027">
        <ele>1974.83</ele>
        <time>2018-03-15T12:42:40Z</time>
      </trkpt>
      <trkpt lat="42.89616" lon="-0.24">
        <ele>1974.52</ele>
        <time>2018-03-15T12:42:44Z</time>
      </trkpt>
      <trkpt lat="42.8963" lon="-0.23982">
        <ele>1973.55</ele>
        <time>2018-03-15T12:42:47Z</time>
      </trkpt>
      <trkpt lat="42.89628" lon="-0.23955">
        <ele>1967.25</ele>
        <time>2018-03-15T12:42:52Z</time>
      </trkpt>
      <trkpt lat="42.89633" lon="-0.23926">
        <ele>1961.68</ele>
        <time>2018-03-15T12:42:57Z</time>
      </trkpt>
      <trkpt lat="42.89644" lon="-0.23902">
        <ele>1957.72</ele>
        <time>2018-03-15T12:43:01Z</time>
      </trkpt>
      <trkpt lat="42.89655" lon="-0.23882">
        <ele>1951.37</ele>
        <time>2018-03-15T12:43:05Z</time>
      </trkpt>
      <trkpt lat="42.89672" lon="-0.23869">
        <ele>1945.01</ele>
        <time>2018-03-15T12:43:09Z</time>
      </trkpt>
      <trkpt lat="42.8969" lon="-0.23866">
        <ele>1935.86</ele>
        <time>2018-03-15T12:43:15Z</time>
      </trkpt>
      <trkpt lat="42.897" lon="-0.23841">
        <ele>1921.92</ele>
        <time>2018-03-15T12:45:03Z</time>
      </trkpt>
      <trkpt lat="42.89719" lon="-0.23846">
        <ele>1918.85</ele>
        <time>2018-03-15T12:45:09Z</time>
      </trkpt>
      <trkpt lat="42.89733" lon="-0.2387">
        <ele>1911.46</ele>
        <time>2018-03-15T12:45:13Z</time>
      </trkpt>
      <trkpt lat="42.89748" lon="-0.23891">
        <ele>1905.28</ele>
        <time>2018-03-15T12:45:17Z</time>
      </trkpt>
      <trkpt lat="42.89768" lon="-0.23885">
        <ele>1898.86</ele>
        <time>2018-03-15T12:45:25Z</time>
      </trkpt>
      <trkpt lat="42.89783" lon="-0.23867">
        <ele>1896.91</ele>
        <time>2018-03-15T12:45:29Z</time>
      </trkpt>
      <trkpt lat="42.89797" lon="-0.23846">
        <ele>1891.93</ele>
        <time>2018-03-15T12:45:34Z</time>
      </trkpt>
      <trkpt lat="42.89785" lon="-0.23828">
        <ele>1883.66</ele>
        <time>2018-03-15T12:45:42Z</time>
      </trkpt>
      <trkpt lat="42.89797" lon="-0.23805">
        <ele>1875.85</ele>
        <time>2018-03-15T12:45:59Z</time>
      </trkpt>
      <trkpt lat="42.89814" lon="-0.23781">
        <ele>1869.33</ele>
        <time>2018-03-15T12:46:05Z</time>
      </trkpt>
      <trkpt lat="42.89834" lon="-0.23787">
        <ele>1856.68</ele>
        <time>2018-03-15T12:46:12Z</time>
      </trkpt>
      <trkpt lat="42.89852" lon="-0.238">
        <ele>1851.36</ele>
        <time>2018-03-15T12:46:15Z</time>
      </trkpt>
      <trkpt lat="42.8986" lon="-0.23777">
        <ele>1842.86</ele>
        <time>2018-03-15T12:46:21Z</time>
      </trkpt>
      <trkpt lat="42.89849" lon="-0.23756">
        <ele>1838.95</ele>
        <time>2018-03-15T12:46:25Z</time>
      </trkpt>
      <trkpt lat="42.89867" lon="-0.23761">
        <ele>1814.61</ele>
        <time>2018-03-15T12:47:05Z</time>
      </trkpt>
      <trkpt lat="42.89882" lon="-0.23745">
        <ele>1808.64</ele>
        <time>2018-03-15T12:48:09Z</time>
      </trkpt>
      <trkpt lat="42.89897" lon="-0.23729">
        <ele>1803.61</ele>
        <time>2018-03-15T12:48:39Z</time>
      </trkpt>
      <trkpt lat="42.89903" lon="-0.23705">
        <ele>1802.76</ele>
        <time>2018-03-15T12:48:43Z</time>
      </trkpt>
      <trkpt lat="42.89904" lon="-0.23673">
        <ele>1801.93</ele>
        <time>2018-03-15T12:48:48Z</time>
      </trkpt>
      <trkpt lat="42.89911" lon="-0.23647">
        <ele>1796.07</ele>
        <time>2018-03-15T12:48:53Z</time>
      </trkpt>
      <trkpt lat="42.89923" lon="-0.2362">
        <ele>1789.28</ele>
        <time>2018-03-15T12:48:58Z</time>
      </trkpt>
      <trkpt lat="42.89938" lon="-0.23603">
        <ele>1779.85</ele>
        <time>2018-03-15T12:49:02Z</time>
      </trkpt>
      <trkpt lat="42.8996" lon="-0.23604">
        <ele>1771.03</ele>
        <time>2018-03-15T12:49:06Z</time>
      </trkpt>
      <trkpt lat="42.89979" lon="-0.23598">
        <ele>1764.96</ele>
        <time>2018-03-15T12:49:11Z</time>
      </trkpt>
      <trkpt lat="42.89998" lon="-0.23591">
        <ele>1758.24</ele>
        <time>2018-03-15T12:49:17Z</time>
      </trkpt>
      <trkpt lat="42.9002" lon="-0.23586">
        <ele>1752.95</ele>
        <time>2018-03-15T12:49:22Z</time>
      </trkpt>
      <trkpt lat="42.90039" lon="-0.23581">
        <ele>1738.15</ele>
        <time>2018-03-15T12:51:22Z</time>
      </trkpt>
      <trkpt lat="42.90037" lon="-0.23556">
        <ele>1737.5</ele>
        <time>2018-03-15T12:51:27Z</time>
      </trkpt>
      <trkpt lat="42.90039" lon="-0.23531">
        <ele>1736.55</ele>
        <time>2018-03-15T12:51:31Z</time>
      </trkpt>
      <trkpt lat="42.90053" lon="-0.23511">
        <ele>1735.12</ele>
        <time>2018-03-15T12:51:34Z</time>
      </trkpt>
      <trkpt lat="42.90067" lon="-0.23489">
        <ele>1730.07</ele>
        <time>2018-03-15T12:51:37Z</time>
      </trkpt>
      <trkpt lat="42.90085" lon="-0.2348">
        <ele>1721.82</ele>
        <time>2018-03-15T12:52:01Z</time>
      </trkpt>
      <trkpt lat="42.90079" lon="-0.23456">
        <ele>1718.65</ele>
        <time>2018-03-15T12:52:07Z</time>
      </trkpt>
      <trkpt lat="42.90086" lon="-0.2343">
        <ele>1715.92</ele>
        <time>2018-03-15T12:52:11Z</time>
      </trkpt>
      <trkpt lat="42.90089" lon="-0.23402">
        <ele>1710.23</ele>
        <time>2018-03-15T12:52:16Z</time>
      </trkpt>
      <trkpt lat="42.90091" lon="-0.23378">
        <ele>1702.47</ele>
        <time>2018-03-15T12:52:21Z</time>
      </trkpt>
      <trkpt lat="42.90109" lon="-0.23366">
        <ele>1693.29</ele>
        <time>2018-03-15T12:52:26Z</time>
      </trkpt>
      <trkpt lat="42.90105" lon="-0.23341">
        <ele>1684.96</ele>
        <time>2018-03-15T12:52:32Z</time>
      </trkpt>
      <trkpt lat="42.90119" lon="-0.23323">
        <ele>1676.26</ele>
        <time>2018-03-15T12:52:38Z</time>
      </trkpt>
      <trkpt lat="42.90134" lon="-0.23302">
        <ele>1668.05</ele>
        <time>2018-03-15T12:52:44Z</time>
      </trkpt>
      <trkpt lat="42.90148" lon="-0.23284">
        <ele>1662.15</ele>
        <time>2018-03-15T12:52:50Z</time>
      </trkpt>
      <trkpt lat="42.90162" lon="-0.23265">
        <ele>1657.17</ele>
        <time>2018-03-15T12:52:54Z</time>
      </trkpt>
      <trkpt lat="42.90143" lon="-0.23259">
        <ele>1639.52</ele>
        <time>2018-03-15T12:53:38Z</time>
      </trkpt>
      <trkpt lat="42.90148" lon="-0.23231">
        <ele>1632.87</ele>
        <time>2018-03-15T12:53:48Z</time>
      </trkpt>
      <trkpt lat="42.90151" lon="-0.23206">
        <ele>1613.83</ele>
        <time>2018-03-15T12:54:11Z</time>
      </trkpt>
      <trkpt lat="42.90158" lon="-0.23178">
        <ele>1604.55</ele>
        <time>2018-03-15T12:54:24Z</time>
      </trkpt>
      <trkpt lat="42.90172" lon="-0.2316">
        <ele>1601.92</ele>
        <time>2018-03-15T12:54:28Z</time>
      </trkpt>
      <trkpt lat="42.90184" lon="-0.23137">
        <ele>1598.92</ele>
        <time>2018-03-15T12:54:33Z</time>
      </trkpt>
      <trkpt lat="42.90183" lon="-0.23112">
        <ele>1573.46</ele>
        <time>2018-03-15T12:56:06Z</time>
      </trkpt>
      <trkpt lat="42.90172" lon="-0.23092">
        <ele>1556.52</ele>
        <time>2018-03-15T12:57:23Z</time>
      </trkpt>
      <trkpt lat="42.90181" lon="-0.2307">
        <ele>1549.55</ele>
        <time>2018-03-15T12:58:05Z</time>
      </trkpt>
      <trkpt lat="42.90182" lon="-0.23043">
        <ele>1540.52</ele>
        <time>2018-03-15T13:02:19Z</time>
      </trkpt>
      <trkpt lat="42.9019" lon="-0.23021">
        <ele>1530.52</ele>
        <time>2018-03-15T13:03:13Z</time>
      </trkpt>
      <trkpt lat="42.90189" lon="-0.22996">
        <ele>1527.52</ele>
        <time>2018-03-15T13:03:42Z</time>
      </trkpt>
      <trkpt lat="42.90178" lon="-0.22977">
        <ele>1525.52</ele>
        <time>2018-03-15T13:04:10Z</time>
      </trkpt>
      <trkpt lat="42.90165" lon="-0.22957">
        <ele>1521.82</ele>
        <time>2018-03-15T13:04:36Z</time>
      </trkpt>
      <trkpt lat="42.90174" lon="-0.22934">
        <ele>1508.64</ele>
        <time>2018-03-15T13:05:07Z</time>
      </trkpt>
      <trkpt lat="42.90171" lon="-0.22909">
        <ele>1500.91</ele>
        <time>2018-03-15T13:05:29Z</time>
      </trkpt>
      <trkpt lat="42.90162" lon="-0.22888">
        <ele>1477.8</ele>
        <time>2018-03-15T13:38:34Z</time>
      </trkpt>
      <trkpt lat="42.90156" lon="-0.22865">
        <ele>1472.42</ele>
        <time>2018-03-15T13:39:10Z</time>
      </trkpt>
      <trkpt lat="42.90151" lon="-0.22841">
        <ele>1458.23</ele>
        <time>2018-03-15T13:39:58Z</time>
      </trkpt>
      <trkpt lat="42.90155" lon="-0.22816">
        <ele>1463.13</ele>
        <time>2018-03-15T13:40:30Z</time>
      </trkpt>
      <trkpt lat="42.90151" lon="-0.22791">
        <ele>1458.8</ele>
        <time>2018-03-15T13:41:13Z</time>
      </trkpt>
      <trkpt lat="42.90141" lon="-0.22771">
        <ele>1443.61</ele>
        <time>2018-03-15T13:41:51Z</time>
      </trkpt>
      <trkpt lat="42.90131" lon="-0.2275">
        <ele>1433.55</ele>
        <time>2018-03-15T13:42:30Z</time>
      </trkpt>
      <trkpt lat="42.90123" lon="-0.22728">
        <ele>1425.62</ele>
        <time>2018-03-15T13:43:02Z</time>
      </trkpt>
      <trkpt lat="42.9011" lon="-0.22709">
        <ele>1412.64</ele>
        <time>2018-03-15T13:43:33Z</time>
      </trkpt>
      <trkpt lat="42.90099" lon="-0.22689">
        <ele>1397.22</ele>
        <time>2018-03-15T13:44:35Z</time>
      </trkpt>
      <trkpt lat="42.90098" lon="-0.22663">
        <ele>1385.58</ele>
        <time>2018-03-15T13:45:05Z</time>
      </trkpt>
      <trkpt lat="42.90093" lon="-0.22638">
        <ele>1372.43</ele>
        <time>2018-03-15T13:45:48Z</time>
      </trkpt>
      <trkpt lat="42.90091" lon="-0.22613">
        <ele>1367.82</ele>
        <time>2018-03-15T13:46:12Z</time>
      </trkpt>
      <trkpt lat="42.90091" lon="-0.22588">
        <ele>1361.61</ele>
        <time>2018-03-15T13:46:43Z</time>
      </trkpt>
      <trkpt lat="42.90104" lon="-0.2257">
        <ele>1359.23</ele>
        <time>2018-03-15T13:47:14Z</time>
      </trkpt>
      <trkpt lat="42.90109" lon="-0.22545">
        <ele>1350.52</ele>
        <time>2018-03-15T13:47:41Z</time>
      </trkpt>
      <trkpt lat="42.90107" lon="-0.2252">
        <ele>1342.31</ele>
        <time>2018-03-15T13:48:11Z</time>
      </trkpt>
      <trkpt lat="42.90099" lon="-0.22498">
        <ele>1333.61</ele>
        <time>2018-03-15T13:48:39Z</time>
      </trkpt>
      <trkpt lat="42.90104" lon="-0.22473">
        <ele>1309</ele>
        <time>2018-03-15T13:49:23Z</time>
      </trkpt>
      <trkpt lat="42.90114" lon="-0.22453">
        <ele>1299.7</ele>
        <time>2018-03-15T13:49:44Z</time>
      </trkpt>
      <trkpt lat="42.90116" lon="-0.22428">
        <ele>1285.83</ele>
        <time>2018-03-15T13:50:15Z</time>
      </trkpt>
      <trkpt lat="42.9012" lon="-0.22403">
        <ele>1276.7</ele>
        <time>2018-03-15T13:50:37Z</time>
      </trkpt>
      <trkpt lat="42.90121" lon="-0.22377">
        <ele>1260.95</ele>
        <time>2018-03-15T13:51:08Z</time>
      </trkpt>
      <trkpt lat="42.90116" lon="-0.22352">
        <ele>1251.53</ele>
        <time>2018-03-15T13:51:38Z</time>
      </trkpt>
      <trkpt lat="42.90102" lon="-0.22335">
        <ele>1237.83</ele>
        <time>2018-03-15T13:52:07Z</time>
      </trkpt>
      <trkpt lat="42.90096" lon="-0.22312">
        <ele>1226.53</ele>
        <time>2018-03-15T13:52:34Z</time>
      </trkpt>
      <trkpt lat="42.90084" lon="-0.22293">
        <ele>1218.6</ele>
        <time>2018-03-15T13:53:00Z</time>
      </trkpt>
      <trkpt lat="42.90084" lon="-0.22267">
        <ele>1211.47</ele>
        <time>2018-03-15T13:53:24Z</time>
      </trkpt>
      <trkpt lat="42.90093" lon="-0.22245">
        <ele>1208.73</ele>
        <time>2018-03-15T13:53:49Z</time>
      </trkpt>
      <trkpt lat="42.90091" lon="-0.22221">
        <ele>1200.64</ele>
        <time>2018-03-15T13:54:15Z</time>
      </trkpt>
      <trkpt lat="42.90086" lon="-0.22196">
        <ele>1191.52</ele>
        <time>2018-03-15T13:54:43Z</time>
      </trkpt>
      <trkpt lat="42.90087" lon="-0.22171">
        <ele>1187.21</ele>
        <time>2018-03-15T13:55:32Z</time>
      </trkpt>
      <trkpt lat="42.90091" lon="-0.22146">
        <ele>1187.43</ele>
        <time>2018-03-15T13:59:39Z</time>
      </trkpt>
      <trkpt lat="42.901" lon="-0.22123">
        <ele>1189.52</ele>
        <time>2018-03-15T13:59:55Z</time>
      </trkpt>
      <trkpt lat="42.901" lon="-0.22098">
        <ele>1186.53</ele>
        <time>2018-03-15T14:00:15Z</time>
      </trkpt>
      <trkpt lat="42.90107" lon="-0.22075">
        <ele>1185.53</ele>
        <time>2018-03-15T14:00:32Z</time>
      </trkpt>
      <trkpt lat="42.90119" lon="-0.22056">
        <ele>1183.82</ele>
        <time>2018-03-15T14:00:53Z</time>
      </trkpt>
      <trkpt lat="42.90136" lon="-0.22042">
        <ele>1184.52</ele>
        <time>2018-03-15T14:01:08Z</time>
      </trkpt>
      <trkpt lat="42.90151" lon="-0.22026">
        <ele>1184.54</ele>
        <time>2018-03-15T14:01:24Z</time>
      </trkpt>
      <trkpt lat="42.90166" lon="-0.2201">
        <ele>1183.82</ele>
        <time>2018-03-15T14:01:40Z</time>
      </trkpt>
      <trkpt lat="42.9018" lon="-0.21994">
        <ele>1182.59</ele>
        <time>2018-03-15T14:01:56Z</time>
      </trkpt>
      <trkpt lat="42.90195" lon="-0.21979">
        <ele>1182.52</ele>
        <time>2018-03-15T14:02:11Z</time>
      </trkpt>
      <trkpt lat="42.90211" lon="-0.21967">
        <ele>1183.58</ele>
        <time>2018-03-15T14:02:26Z</time>
      </trkpt>
      <trkpt lat="42.90226" lon="-0.21953">
        <ele>1182.52</ele>
        <time>2018-03-15T14:02:44Z</time>
      </trkpt>
      <trkpt lat="42.90241" lon="-0.21937">
        <ele>1181.52</ele>
        <time>2018-03-15T14:03:00Z</time>
      </trkpt>
      <trkpt lat="42.90255" lon="-0.21922">
        <ele>1181.54</ele>
        <time>2018-03-15T14:03:15Z</time>
      </trkpt>
      <trkpt lat="42.90269" lon="-0.21905">
        <ele>1181.52</ele>
        <time>2018-03-15T14:03:30Z</time>
      </trkpt>
      <trkpt lat="42.90278" lon="-0.21883">
        <ele>1182.61</ele>
        <time>2018-03-15T14:03:45Z</time>
      </trkpt>
      <trkpt lat="42.90285" lon="-0.2186">
        <ele>1183.31</ele>
        <time>2018-03-15T14:04:01Z</time>
      </trkpt>
      <trkpt lat="42.90293" lon="-0.21838">
        <ele>1186.49</ele>
        <time>2018-03-15T14:04:17Z</time>
      </trkpt>
      <trkpt lat="42.90301" lon="-0.21815">
        <ele>1186.52</ele>
        <time>2018-03-15T14:04:34Z</time>
      </trkpt>
      <trkpt lat="42.90311" lon="-0.21792">
        <ele>1187.52</ele>
        <time>2018-03-15T14:04:51Z</time>
      </trkpt>
      <trkpt lat="42.90319" lon="-0.21768">
        <ele>1187.52</ele>
        <time>2018-03-15T14:05:06Z</time>
      </trkpt>
      <trkpt lat="42.90327" lon="-0.21746">
        <ele>1186.52</ele>
        <time>2018-03-15T14:05:22Z</time>
      </trkpt>
      <trkpt lat="42.9034" lon="-0.21726">
        <ele>1185.52</ele>
        <time>2018-03-15T14:05:38Z</time>
      </trkpt>
      <trkpt lat="42.90355" lon="-0.21711">
        <ele>1185.82</ele>
        <time>2018-03-15T14:05:53Z</time>
      </trkpt>
      <trkpt lat="42.90368" lon="-0.21695">
        <ele>1181.82</ele>
        <time>2018-03-15T14:06:10Z</time>
      </trkpt>
      <trkpt lat="42.90385" lon="-0.21682">
        <ele>1181.52</ele>
        <time>2018-03-15T14:06:26Z</time>
      </trkpt>
      <trkpt lat="42.90402" lon="-0.21674">
        <ele>1180.52</ele>
        <time>2018-03-15T14:06:39Z</time>
      </trkpt>
      <trkpt lat="42.9042" lon="-0.21667">
        <ele>1179.59</ele>
        <time>2018-03-15T14:06:54Z</time>
      </trkpt>
      <trkpt lat="42.90438" lon="-0.21664">
        <ele>1178.46</ele>
        <time>2018-03-15T14:07:12Z</time>
      </trkpt>
      <trkpt lat="42.90452" lon="-0.21646">
        <ele>1180.52</ele>
        <time>2018-03-15T14:07:52Z</time>
      </trkpt>
      <trkpt lat="42.90459" lon="-0.21621">
        <ele>1186.22</ele>
        <time>2018-03-15T14:08:33Z</time>
      </trkpt>
      <trkpt lat="42.90464" lon="-0.21597">
        <ele>1183.52</ele>
        <time>2018-03-15T14:09:26Z</time>
      </trkpt>
      <trkpt lat="42.90472" lon="-0.21575">
        <ele>1185.43</ele>
        <time>2018-03-15T14:10:02Z</time>
      </trkpt>
      <trkpt lat="42.90484" lon="-0.21556">
        <ele>1186.49</ele>
        <time>2018-03-15T14:10:34Z</time>
      </trkpt>
      <trkpt lat="42.905" lon="-0.21545">
        <ele>1180.61</ele>
        <time>2018-03-15T14:11:19Z</time>
      </trkpt>
      <trkpt lat="42.90513" lon="-0.21527">
        <ele>1179.22</ele>
        <time>2018-03-15T14:11:39Z</time>
      </trkpt>
      <trkpt lat="42.90523" lon="-0.21505">
        <ele>1181.52</ele>
        <time>2018-03-15T14:11:55Z</time>
      </trkpt>
      <trkpt lat="42.90533" lon="-0.21484">
        <ele>1182.81</ele>
        <time>2018-03-15T14:12:10Z</time>
      </trkpt>
      <trkpt lat="42.90535" lon="-0.21458">
        <ele>1181.52</ele>
        <time>2018-03-15T14:12:26Z</time>
      </trkpt>
      <trkpt lat="42.90536" lon="-0.21433">
        <ele>1180.52</ele>
        <time>2018-03-15T14:12:41Z</time>
      </trkpt>
      <trkpt lat="42.90541" lon="-0.2141">
        <ele>1181.52</ele>
        <time>2018-03-15T14:12:56Z</time>
      </trkpt>
      <trkpt lat="42.90543" lon="-0.21384">
        <ele>1182.52</ele>
        <time>2018-03-15T14:13:12Z</time>
      </trkpt>
      <trkpt lat="42.90548" lon="-0.21361">
        <ele>1183.52</ele>
        <time>2018-03-15T14:13:28Z</time>
      </trkpt>
      <trkpt lat="42.90556" lon="-0.21338">
        <ele>1180.49</ele>
        <time>2018-03-15T14:13:55Z</time>
      </trkpt>
    </trkseg>
  </trk>
</gpx>